• Join FlightAware (Why Join?)
  • Login
  • US Flag 
09:48AM EDT


 

Airport Tracker/Info


-or-


 

Live Flight TrackerFlight Track Log ✈ UAL906 ✈ 29-Apr-2013 ✈ KORD - EDDM / MUC

Flight Track Log - Related Links

Times and Time Zones

All times are in EDT time to prevent confusion due to time zone crossing. See the UAL906 flight status page for this flight to view local times or setup timezone preferences in your user account.

Time Position Orientation Groundspeed Altitude Reporting Facility
EDT Latitude Longitude Course Direction KTS MPH feet Rate Location/Type
07:19PM 41.9620 -87.9410 270° West 197 227 1,500  Level FlightAware
07:19PM 41.9600 -87.9710 265° West 214 246 2,300 2,040 Climbing FlightAware
07:20PM 41.9570 -88.0160 265° West 239 275 3,400 2,100 Climbing FlightAware
07:20PM 41.9580 -88.0280 276° West 249 287 3,700 2,160 Climbing FlightAware
07:20PM 41.9670 -88.0510 298° West 267 307 4,300 2,760 Climbing FlightAware
07:21PM 41.9880 -88.0900 306° West 273 314 5,800 3,300 Climbing FlightAware
07:21PM 42.0020 -88.1010 330° Northwest 281 323 6,500 2,880 Climbing FlightAware
07:21PM 42.0190 -88.1060 348° North 297 342 7,000 3,060 Climbing FlightAware
07:21PM 42.0570 -88.0840 23° Northeast 307 353 8,800 3,000 Climbing FlightAware
07:22PM 42.0810 -88.0450 50° Northeast 312 359 10,000 2,700 Climbing FlightAware
07:22PM 42.1090 -88.0070 45° Northeast 307 353 11,300 3,060 Climbing FlightAware
07:23PM 42.1230 -87.9980 25° Northeast 302 348 11,800 2,580 Climbing FlightAware
07:23PM 42.1810 -87.9850 North 295 339 13,700 2,580 Climbing FlightAware
07:24PM 42.2440 -87.9740 North 296 341 15,700 2,520 Climbing FlightAware
07:25PM 42.2850 -87.9650 North 300 345 16,900 1,920 Climbing FlightAware
07:25PM 42.3640 -87.9340 16° North 336 387 18,500 1,680 Climbing FlightAware
07:26PM 42.4150 -87.8990 27° Northeast 344 396 19,600 1,560 Climbing FlightAware
07:27PM 42.4730 -87.8620 25° Northeast 362 417 20,600 1,740 Climbing FlightAware
07:28PM 42.5460 -87.8270 19° North 357 411 22,100 1,440 Climbing FlightAware
07:28PM 42.6160 -87.8160 North 380 437 22,700 1,200 Climbing FlightAware
07:29PM 42.6960 -87.8080 North 395 455 23,800 1,200 Climbing FlightAware
07:30PM 42.7590 -87.7980 North 410 472 24,300 1,080 Climbing FlightAware
07:30PM 42.8580 -87.7870 North 426 490 25,400 1,200 Climbing FlightAware
07:31PM 42.9380 -87.7770 North 437 503 26,100 1,260 Climbing FlightAware
07:32PM 43.0250 -87.7680 North 448 516 27,100 1,680 Climbing FlightAware
07:32PM 43.1080 -87.7570 North 448 516 28,400 1,380 Climbing FlightAware
07:33PM 43.1800 -87.7250 18° North 463 533 29,000 420 Climbing FlightAware
07:34PM 43.2760 -87.6350 34° Northeast 475 547 29,100 780 Climbing FlightAware
07:35PM 43.3270 -87.5580 48° Northeast 469 540 30,200 1,500 Climbing FlightAware
07:35PM 43.3870 -87.4730 46° Northeast 473 544 31,000 540 Climbing FlightAware
07:36PM 43.4590 -87.3680 47° Northeast 478 550 31,000  Level FlightAware
07:37PM 43.5180 -87.2820 47° Northeast 476 548 31,000  Level FlightAware
07:37PM 43.5820 -87.1880 47° Northeast 476 548 31,000  Level FlightAware
07:38PM 43.6460 -87.0930 47° Northeast 478 550 31,000  Level FlightAware
07:39PM 43.7120 -86.9960 47° Northeast 478 550 31,000 300 Level FlightAware
07:39PM 43.7630 -86.9210 47° Northeast 483 556 31,400 600 Climbing FlightAware
07:40PM 43.8410 -86.8060 47° Northeast 500 575 31,900 900 Climbing FlightAware
07:41PM 43.9090 -86.7040 47° Northeast 497 572 32,900 720 Climbing FlightAware
07:42PM 43.9770 -86.6040 47° Northeast 492 566 33,000 60 Climbing FlightAware
07:42PM 44.0380 -86.5120 47° Northeast 489 563 33,000  Level FlightAware
07:43PM 44.1080 -86.4070 47° Northeast 488 562 33,000  Level FlightAware
07:44PM 44.1620 -86.3260 47° Northeast 489 563 33,000  Level FlightAware
07:44PM 44.2380 -86.2110 47° Northeast 491 565 33,000  Level FlightAware
07:45PM 44.2990 -86.1170 48° Northeast 496 571 33,000  Level FlightAware
07:46PM 44.3510 -86.0370 48° Northeast 498 573 33,000  Level FlightAware
07:46PM 44.4290 -85.9170 48° Northeast 501 577 33,000  Level FlightAware
07:47PM 44.4940 -85.8170 48° Northeast 504 580 33,000  Level FlightAware
07:48PM 44.5640 -85.7090 48° Northeast 505 581 33,000  Level FlightAware
07:49PM 44.6260 -85.6140 47° Northeast 506 582 33,000  Level FlightAware
07:49PM 44.6900 -85.5140 48° Northeast 506 582 33,000  Level FlightAware
07:50PM 44.7590 -85.4070 48° Northeast 506 582 33,000  Level FlightAware
07:51PM 44.8220 -85.3100 48° Northeast 506 582 33,000  Level FlightAware
07:51PM 44.8940 -85.1980 48° Northeast 506 582 33,000  Level FlightAware
07:52PM 44.9560 -85.1010 48° Northeast 505 581 33,000  Level FlightAware
07:53PM 45.0180 -85.0040 48° Northeast 505 581 33,000  Level FlightAware
07:53PM 45.0900 -84.8920 48° Northeast 504 580 33,000  Level FlightAware
07:54PM 45.1530 -84.7920 48° Northeast 504 580 33,000  Level FlightAware
07:55PM 45.2140 -84.6950 48° Northeast 505 581 33,000  Level FlightAware
07:56PM 45.2830 -84.5840 49° Northeast 505 581 33,000  Level FlightAware
07:56PM 45.3450 -84.4850 48° Northeast 507 583 33,000  Level FlightAware
07:57PM 45.4070 -84.3860 48° Northeast 507 583 33,000  Level FlightAware
07:58PM 45.4790 -84.2700 48° Northeast 509 586 33,000  Level FlightAware
07:58PM 45.5400 -84.1720 48° Northeast 510 587 33,000  Level FlightAware
07:59PM 45.6080 -84.0610 49° Northeast 512 589 33,000  Level FlightAware
08:00PM 45.6720 -83.9560 49° Northeast 513 590 33,000  Level FlightAware
08:00PM 45.7330 -83.8560 49° Northeast 514 592 33,000  Level FlightAware
08:01PM 45.8060 -83.7370 49° Northeast 515 593 33,000  Level FlightAware
08:02PM 45.8690 -83.6320 49° Northeast 516 594 33,000  Level FlightAware
08:03PM 45.9380 -83.5190 49° Northeast 517 595 33,000  Level FlightAware
08:03PM 45.9990 -83.4170 49° Northeast 519 597 33,000  Level FlightAware
08:04PM 46.0710 -83.2950 50° Northeast 519 597 33,000  Level FlightAware
08:05PM 46.1340 -83.1900 49° Northeast 519 597 33,000  Level FlightAware
08:05PM 46.1960 -83.0850 50° Northeast 520 598 33,000  Level FlightAware
08:06PM 46.2650 -82.9690 49° Northeast 520 598 33,000  Level FlightAware
08:07PM 46.3270 -82.8620 50° Northeast 521 600 33,000  Level FlightAware
08:07PM 46.3970 -82.7440 49° Northeast 521 600 33,000  Level FlightAware
08:08PM 46.4600 -82.6360 50° Northeast 521 600 33,000  Level FlightAware
08:09PM 46.5190 -82.5330 50° Northeast 521 600 33,000  Level FlightAware
08:10PM 46.5810 -82.4260 50° Northeast 521 600 33,000  Level FlightAware
08:10PM 46.6340 -82.3340 50° Northeast 521 600 33,000  Level FlightAware
08:11PM 46.6860 -82.2430 50° Northeast 521 600 33,000  Level FlightAware
08:12PM 46.7390 -82.1510 50° Northeast 521 600 33,000  Level FlightAware
08:12PM 46.8430 -81.9670 50° Northeast 518 596 33,000  Level FlightAware
08:13PM 46.8990 -81.8680 50° Northeast 517 595 33,000  Level FlightAware
08:14PM 46.9520 -81.7770 50° Northeast 517 595 33,000  Level FlightAware
08:14PM 47.0170 -81.6620 50° Northeast 517 595 33,000  Level FlightAware
08:15PM 47.0690 -81.5710 50° Northeast 517 595 33,000  Level FlightAware
08:16PM 47.1220 -81.4800 49° Northeast 517 595 33,000  Level FlightAware
08:16PM 47.1740 -81.3880 50° Northeast 517 595 33,000  Level FlightAware
08:17PM 47.2260 -81.2960 50° Northeast 517 595 33,000  Level FlightAware
08:18PM 47.2910 -81.1810 50° Northeast 517 595 33,000  Level FlightAware
08:19PM 47.3440 -81.0900 49° Northeast 517 595 33,000  Level FlightAware
08:19PM 47.3960 -80.9980 50° Northeast 517 595 33,000  Level FlightAware
08:20PM 47.4480 -80.9050 50° Northeast 517 595 33,000  Level FlightAware
08:21PM 47.5000 -80.8130 50° Northeast 517 595 33,000  Level FlightAware
08:21PM 47.5660 -80.6980 50° Northeast 517 595 33,000  Level FlightAware
08:22PM 47.6180 -80.6060 50° Northeast 517 595 33,000  Level FlightAware
08:22PM 47.7167 -80.3167 50° Northeast 490 564 33,000  Level Toronto Center
08:23PM 47.8000 -80.1833 47° Northeast 500 575 33,000  Level Toronto Center
08:24PM 47.8833 -80.0000 56° Northeast 500 575 33,000  Level Toronto Center
08:25PM 47.9667 -79.8500 50° Northeast 490 564 33,000  Level Toronto Center
08:26PM 48.0500 -79.6833 53° Northeast 500 575 33,000  Level Toronto Center
08:27PM 48.1333 -79.5000 56° Northeast 500 575 33,000  Level Toronto Center
08:28PM 48.2000 -79.4000 45° Northeast 490 564 33,000  Level Montreal Center
08:29PM 48.3000 -79.2333 48° Northeast 500 575 33,000  Level Montreal Center
08:30PM 48.3833 -79.0833 50° Northeast 500 575 33,000  Level Montreal Center
08:31PM 48.4500 -78.9000 61° Northeast 500 575 33,000  Level Montreal Center
08:32PM 48.5667 -78.7333 43° Northeast 500 575 33,000  Level Montreal Center
08:33PM 48.6500 -78.5833 50° Northeast 490 564 33,000  Level Montreal Center
08:34PM 48.7500 -78.4333 45° Northeast 500 575 33,000  Level Montreal Center
08:35PM 48.8500 -78.2833 45° Northeast 500 575 33,000  Level Montreal Center
08:36PM 48.9500 -78.1500 41° Northeast 490 564 33,000  Level Montreal Center
08:37PM 49.0333 -78.0000 50° Northeast 500 575 33,000  Level Montreal Center
08:38PM 49.1333 -77.8500 44° Northeast 480 552 33,000  Level Montreal Center
08:39PM 49.2167 -77.6833 53° Northeast 490 564 33,000  Level Montreal Center
08:40PM 49.3333 -77.5167 43° Northeast 500 575 33,000  Level Montreal Center
08:41PM 49.4333 -77.3833 41° Northeast 510 587 33,000  Level Montreal Center
08:42PM 49.5167 -77.2167 52° Northeast 490 564 33,000  Level Montreal Center
08:43PM 49.6167 -77.0500 47° Northeast 480 552 33,000  Level Montreal Center
08:44PM 49.7000 -76.9000 49° Northeast 500 575 33,000  Level Montreal Center
08:45PM 49.8000 -76.7500 44° Northeast 490 564 33,000  Level Montreal Center
08:46PM 49.8833 -76.6167 46° Northeast 490 564 33,000  Level Montreal Center
08:47PM 49.9833 -76.4333 50° Northeast 490 564 33,000  Level Montreal Center
08:48PM 50.0833 -76.2833 44° Northeast 490 564 33,000  Level Montreal Center
08:49PM 50.1833 -76.1167 47° Northeast 490 564 33,000  Level Montreal Center
08:50PM 50.2667 -75.9667 49° Northeast 490 564 33,000  Level Montreal Center
08:51PM 50.3667 -75.8000 47° Northeast 490 564 33,000  Level Montreal Center
08:52PM 50.4500 -75.6500 49° Northeast 490 564 33,000  Level Montreal Center
08:53PM 50.5500 -75.4833 47° Northeast 490 564 33,000  Level Montreal Center
08:54PM 50.6500 -75.3333 44° Northeast 490 564 33,000  Level Montreal Center
08:55PM 50.7333 -75.1667 52° Northeast 490 564 33,000  Level Montreal Center
08:56PM 50.8333 -75.0000 46° Northeast 490 564 33,000  Level Montreal Center
08:57PM 50.9167 -74.8500 49° Northeast 490 564 33,000  Level Montreal Center
08:58PM 51.0167 -74.6833 46° Northeast 490 564 33,000  Level Montreal Center
08:59PM 51.1000 -74.5167 51° Northeast 490 564 33,000  Level Montreal Center
09:00PM 51.1833 -74.3500 51° Northeast 490 564 33,000  Level Montreal Center
09:01PM 51.2667 -74.1833 51° Northeast 490 564 33,000  Level Montreal Center
09:02PM 51.3667 -74.0167 46° Northeast 490 564 33,000  Level Montreal Center
09:03PM 51.4500 -73.8500 51° Northeast 490 564 33,000  Level Montreal Center
09:04PM 51.5500 -73.6833 46° Northeast 490 564 33,000  Level Montreal Center
09:05PM 51.6333 -73.5167 51° Northeast 490 564 33,000  Level Montreal Center
09:06PM 51.7167 -73.3500 51° Northeast 480 552 33,000  Level Montreal Center
09:07PM 51.8167 -73.1833 46° Northeast 490 564 33,000  Level Montreal Center
09:08PM 51.9000 -73.0167 51° Northeast 490 564 33,000  Level Montreal Center
09:09PM 51.9833 -72.8500 51° Northeast 490 564 33,000  Level Montreal Center
09:10PM 52.0833 -72.6833 46° Northeast 490 564 33,000  Level Montreal Center
09:11PM 52.1667 -72.5333 48° Northeast 490 564 33,000  Level Montreal Center
09:12PM 52.2500 -72.3333 56° Northeast 490 564 33,000  Level Montreal Center
09:13PM 52.3333 -72.1833 48° Northeast 490 564 33,000  Level Montreal Center
09:14PM 52.4167 -72.0167 51° Northeast 490 564 33,000  Level Montreal Center
09:15PM 52.5167 -71.8167 51° Northeast 490 564 33,000  Level Montreal Center
09:16PM 52.6000 -71.6333 53° Northeast 490 564 33,000  Level Montreal Center
09:17PM 52.6833 -71.4833 47° Northeast 480 552 33,000  Level Montreal Center
09:18PM 52.7667 -71.3167 50° Northeast 490 564 33,000  Level Montreal Center
09:19PM 52.8500 -71.1333 53° Northeast 490 564 33,000  Level Montreal Center
09:20PM 52.9333 -70.9667 50° Northeast 480 552 33,000  Level Montreal Center
09:21PM 53.0167 -70.7833 53° Northeast 480 552 33,000  Level Montreal Center
09:22PM 53.1000 -70.6000 53° Northeast 480 552 33,000  Level Montreal Center
09:23PM 53.1833 -70.4333 50° Northeast 480 552 33,000  Level Montreal Center
09:24PM 53.2667 -70.2500 53° Northeast 480 552 33,000  Level Montreal Center
09:25PM 53.3500 -70.0667 53° Northeast 480 552 33,000  Level Montreal Center
09:26PM 53.3833 -70.0667 360° North 490 564 33,000  Level Gander Center
09:27PM 53.4667 -69.8833 53° Northeast 480 552 33,000  Level Gander Center
09:27PM 53.5333 -69.7000 58° Northeast 480 552 33,000  Level Montreal Center
09:28PM 53.6000 -69.5167 58° Northeast 480 552 33,000  Level Montreal Center
09:29PM 53.6833 -69.3667 47° Northeast 480 552 33,000  Level Montreal Center
09:30PM 53.7667 -69.1833 52° Northeast 480 552 33,000  Level Montreal Center
09:31PM 53.8500 -69.0000 52° Northeast 480 552 33,000  Level Montreal Center
09:32PM 53.9167 -68.8000 60° Northeast 480 552 33,000  Level Montreal Center
09:33PM 53.9833 -68.6167 58° Northeast 480 552 33,000  Level Montreal Center
09:34PM 54.0833 -68.4333 47° Northeast 480 552 33,000  Level Montreal Center
09:35PM 54.1500 -68.2500 58° Northeast 480 552 33,000  Level Montreal Center
09:36PM 54.2333 -68.0667 52° Northeast 470 541 33,000  Level Montreal Center
09:37PM 54.3000 -67.8667 60° Northeast 470 541 33,000  Level Montreal Center
09:38PM 54.3667 -67.6833 58° Northeast 470 541 33,000  Level Montreal Center
09:39PM 54.4333 -67.5000 58° Northeast 470 541 33,000  Level Montreal Center
09:40PM 54.5167 -67.3000 54° Northeast 470 541 33,000  Level Montreal Center
09:41PM 54.5833 -67.1167 58° Northeast 470 541 33,000  Level Montreal Center
09:42PM 54.6667 -66.9167 54° Northeast 460 529 33,000  Level Montreal Center
09:43PM 54.6667 -66.9500 270° West 470 541 33,000  Level Gander Center
09:43PM 54.7333 -66.7667 58° Northeast 450 518 33,000  Level Montreal Center
09:44PM 54.8000 -66.5667 60° Northeast 460 529 33,000  Level Montreal Center
09:45PM 54.8667 -66.3833 58° Northeast 450 518 33,000  Level Montreal Center
09:46PM 54.9333 -66.1833 60° Northeast 470 541 33,000  Level Montreal Center
09:47PM 55.0000 -65.9833 60° Northeast 460 529 33,000  Level Montreal Center
09:48PM 55.0667 -65.8000 58° Northeast 450 518 33,000  Level Montreal Center
09:49PM 55.1500 -65.6333 49° Northeast 460 529 33,000  Level Montreal Center
09:50PM 55.1667 -65.6167 30° Northeast 460 529 33,000  Level Gander Center
09:51PM 55.2333 -65.4167 60° Northeast 460 529 33,000  Level Gander Center
09:51PM 55.2833 -65.2667 60° Northeast 460 529 33,000  Level Montreal Center
09:52PM 55.3500 -65.0333 63° Northeast 460 529 33,000  Level Montreal Center
09:53PM 55.4167 -64.8333 60° Northeast 450 518 33,000  Level Montreal Center
09:54PM 55.4833 -64.6667 55° Northeast 460 529 33,000  Level Montreal Center
09:55PM 55.5500 -64.4667 59° Northeast 450 518 33,000  Level Montreal Center
09:56PM 55.6167 -64.2667 59° Northeast 460 529 33,000  Level Montreal Center
09:57PM 55.6333 -64.2667 360° North 460 529 33,000  Level Gander Center
09:58PM 55.7000 -64.1000 55° Northeast 450 518 33,000  Level Gander Center
09:59PM 55.7500 -63.9000 66° East 460 529 33,000  Level Gander Center
09:59PM 55.8167 -63.7000 59° Northeast 460 529 33,000  Level Montreal Center
10:00PM 55.8833 -63.4833 61° Northeast 460 529 33,000  Level Montreal Center
10:01PM 55.9000 -63.5167 312° West 460 529 33,000  Level Gander Center
10:02PM 55.9667 -63.3167 59° Northeast 450 518 33,000  Level Gander Center
10:03PM 56.0167 -63.1000 67° East 460 529 33,000  Level Gander Center
10:04PM 56.0833 -62.9333 54° Northeast 460 529 33,000  Level Gander Center
10:05PM 56.1500 -62.7167 61° Northeast 460 529 33,000  Level Gander Center
10:06PM 56.2167 -62.5167 59° Northeast 460 529 33,000  Level Gander Center
10:06PM 56.2500 -62.3333 72° East 440 506 33,000  Level Montreal Center
10:07PM 56.3167 -62.1500 57° Northeast 450 518 33,000  Level Montreal Center
10:08PM 56.3833 -61.9500 59° Northeast 450 518 33,000  Level Montreal Center
10:09PM 56.4000 -61.9167 48° Northeast 470 541 33,000  Level Gander Center
10:10PM 56.4667 -61.7000 61° Northeast 470 541 33,000  Level Gander Center
10:11PM 56.5167 -61.5167 64° Northeast 460 529 33,000  Level Gander Center
10:12PM 56.5833 -61.2833 63° Northeast 460 529 33,000  Level Gander Center
10:13PM 56.6833 -60.9000 64° Northeast 460 529 33,000  Level Montreal Center
10:14PM 56.7167 -60.8833 15° North 470 541 33,000  Level Gander Center
10:15PM 56.7667 -60.6667 67° East 470 541 33,000  Level Gander Center
10:16PM 56.8167 -60.4833 63° Northeast 450 518 33,000  Level Gander Center
10:17PM 56.8833 -60.3000 56° Northeast 460 529 33,000  Level Gander Center
10:18PM 56.9500 -60.0833 60° Northeast 460 529 33,000  Level Gander Center
10:19PM 57.0000 -59.8667 67° East 470 541 33,000  Level Gander Center
10:20PM 57.0667 -59.6500 60° Northeast 470 541 33,000  Level Gander Center
10:21PM 57.1167 -59.4333 67° East 470 541 33,000  Level Gander Center
10:22PM 57.1667 -59.2167 67° East 470 541 33,000  Level Gander Center
10:23PM 57.2167 -59.0000 67° East 470 541 33,000  Level Gander Center
10:24PM 57.2500 -58.7500 76° East 480 552 33,000  Level Gander Center
10:25PM 57.2500 -58.5000 90° East 470 541 33,000  Level Gander Center
10:26PM 57.2833 -58.2333 77° East 480 552 33,000  Level Gander Center
10:27PM 57.3167 -58.0000 75° East 480 552 33,000  Level Gander Center
10:28PM 57.3333 -57.7833 82° East 480 552 33,000  Level Gander Center
10:29PM 57.3667 -57.5333 76° East 480 552 33,000  Level Gander Center
10:30PM 57.4000 -57.2833 76° East 480 552 33,000  Level Gander Center
10:31PM 57.4167 -57.0333 83° East 480 552 33,000  Level Gander Center
10:32PM 57.4500 -56.7833 76° East 480 552 33,000  Level Gander Center
10:33PM 57.4667 -56.5667 82° East 490 564 33,000  Level Gander Center
10:34PM 57.4833 -56.2500 84° East 490 564 33,000  Level Gander Center
10:35PM 57.5333 -56.0667 63° Northeast 470 541 33,000  Level Gander Center
10:36PM 57.5333 -55.8167 90° East 470 541 33,000  Level Gander Center
10:37PM 57.5833 -55.5500 71° East 480 552 33,000  Level Gander Center
10:38PM 57.6000 -55.3000 83° East 490 564 33,000  Level Gander Center
10:39PM 57.5833 -55.0833 98° East 480 552 33,000  Level Gander Center
10:40PM 57.6333 -54.8333 69° East 480 552 33,000  Level Gander Center
10:42PM 57.6758 -54.3817 80° East  Level FlightAware Approximate
10:49PM 57.8228 -52.6480 80° East  Level FlightAware Approximate
10:50PM 57.8419 -52.3992 82° East  Level FlightAware Approximate
10:51PM 57.8605 -52.1502 82° East  Level FlightAware Approximate
10:52PM 57.8786 -51.9009 82° East  Level FlightAware Approximate
10:53PM 57.8962 -51.6513 82° East  Level FlightAware Approximate
10:54PM 57.9133 -51.4015 83° East  Level FlightAware Approximate
10:55PM 57.9299 -51.1515 83° East  Level FlightAware Approximate
10:56PM 57.9461 -50.9012 83° East  Level FlightAware Approximate
10:57PM 57.9617 -50.6508 83° East  Level FlightAware Approximate
10:58PM 57.9769 -50.4001 83° East  Level FlightAware Approximate
10:59PM 57.9915 -50.1492 84° East  Level FlightAware Approximate
11:00PM 58.0136 -49.9006 75° East  Level FlightAware Approximate
11:01PM 58.0467 -49.6557 76° East  Level FlightAware Approximate
11:02PM 58.0794 -49.4104 76° East  Level FlightAware Approximate
11:03PM 58.1116 -49.1646 76° East  Level FlightAware Approximate
11:04PM 58.1433 -48.9184 76° East  Level FlightAware Approximate
11:05PM 58.1745 -48.6717 76° East  Level FlightAware Approximate
11:06PM 58.2053 -48.4247 77° East  Level FlightAware Approximate
11:07PM 58.2356 -48.1772 77° East  Level FlightAware Approximate
11:08PM 58.2654 -47.9292 77° East  Level FlightAware Approximate
11:09PM 58.2947 -47.6809 77° East  Level FlightAware Approximate
11:10PM 58.3236 -47.4322 77° East  Level FlightAware Approximate
11:11PM 58.3521 -47.1831 77° East  Level FlightAware Approximate
11:12PM 58.3825 -46.9346 77° East  Level FlightAware Approximate
11:13PM 58.4125 -46.6857 77° East  Level FlightAware Approximate
11:14PM 58.4420 -46.4364 77° East  Level FlightAware Approximate
11:15PM 58.4710 -46.1867 77° East  Level FlightAware Approximate
11:16PM 58.4995 -45.9366 78° East  Level FlightAware Approximate
11:17PM 58.5271 -45.6859 78° East  Level FlightAware Approximate
11:18PM 58.5536 -45.4346 78° East  Level FlightAware Approximate
11:19PM 58.5796 -45.1829 79° East  Level FlightAware Approximate
11:20PM 58.6052 -44.9308 79° East  Level FlightAware Approximate
11:21PM 58.6302 -44.6784 79° East  Level FlightAware Approximate
11:22PM 58.6547 -44.4256 79° East  Level FlightAware Approximate
11:23PM 58.6788 -44.1724 80° East  Level FlightAware Approximate
11:24PM 58.7023 -43.9189 80° East  Level FlightAware Approximate
11:25PM 58.7254 -43.6651 80° East  Level FlightAware Approximate
11:26PM 58.7479 -43.4109 80° East  Level FlightAware Approximate
11:27PM 58.7700 -43.1564 80° East  Level FlightAware Approximate
11:28PM 58.7915 -42.9016 81° East  Level FlightAware Approximate
11:29PM 58.8126 -42.6465 81° East  Level FlightAware Approximate
11:30PM 58.8331 -42.3911 81° East  Level FlightAware Approximate
11:31PM 58.8532 -42.1354 81° East  Level FlightAware Approximate
11:32PM 58.8727 -41.8793 81° East  Level FlightAware Approximate
11:33PM 58.8917 -41.6230 82° East  Level FlightAware Approximate
11:34PM 58.9102 -41.3664 82° East  Level FlightAware Approximate
11:35PM 58.9282 -41.1096 82° East  Level FlightAware Approximate
11:36PM 58.9458 -40.8525 82° East  Level FlightAware Approximate
11:37PM 58.9627 -40.5951 83° East  Level FlightAware Approximate
11:38PM 58.9792 -40.3374 83° East  Level FlightAware Approximate
11:39PM 58.9952 -40.0796 83° East  Level FlightAware Approximate
11:40PM 59.0068 -39.8208 86° East  Level FlightAware Approximate
11:41PM 59.0162 -39.5615 86° East  Level FlightAware Approximate
11:42PM 59.0251 -39.3021 86° East  Level FlightAware Approximate
11:43PM 59.0334 -39.0425 86° East  Level FlightAware Approximate
11:44PM 59.0412 -38.7829 87° East  Level FlightAware Approximate
11:45PM 59.0486 -38.5231 87° East  Level FlightAware Approximate
11:46PM 59.0554 -38.2632 87° East  Level FlightAware Approximate
11:47PM 59.0616 -38.0033 87° East  Level FlightAware Approximate
11:48PM 59.0674 -37.7432 87° East  Level FlightAware Approximate
11:49PM 59.0726 -37.4830 88° East  Level FlightAware Approximate
11:50PM 59.0774 -37.2228 88° East  Level FlightAware Approximate
11:51PM 59.0815 -36.9625 88° East  Level FlightAware Approximate
11:52PM 59.0852 -36.7021 88° East  Level FlightAware Approximate
11:53PM 59.0884 -36.4417 89° East  Level FlightAware Approximate
11:54PM 59.0910 -36.1813 89° East  Level FlightAware Approximate
11:55PM 59.0931 -35.9208 89° East  Level FlightAware Approximate
11:56PM 59.0947 -35.6603 89° East  Level FlightAware Approximate
11:57PM 59.0957 -35.3997 89° East  Level FlightAware Approximate
11:58PM 59.0963 -35.1392 90° East  Level FlightAware Approximate
11:59PM 59.0963 -34.8786 90° East  Level FlightAware Approximate
12:00AM 59.0958 -34.6181 90° East  Level FlightAware Approximate
12:01AM 59.0948 -34.3575 90° East  Level FlightAware Approximate
12:02AM 59.0932 -34.0970 91° East  Level FlightAware Approximate
12:03AM 59.0911 -33.8365 91° East  Level FlightAware Approximate
12:04AM 59.0886 -33.5761 91° East  Level FlightAware Approximate
12:05AM 59.0854 -33.3157 91° East  Level FlightAware Approximate
12:06AM 59.0818 -33.0553 91° East  Level FlightAware Approximate
12:07AM 59.0776 -32.7950 92° East  Level FlightAware Approximate
12:08AM 59.0730 -32.5348 92° East  Level FlightAware Approximate
12:09AM 59.0678 -32.2746 92° East  Level FlightAware Approximate
12:10AM 59.0620 -32.0145 92° East  Level FlightAware Approximate
12:11AM 59.0558 -31.7545 93° East  Level FlightAware Approximate
12:12AM 59.0490 -31.4946 93° East  Level FlightAware Approximate
12:13AM 59.0418 -31.2349 93° East  Level FlightAware Approximate
12:14AM 59.0340 -30.9752 93° East  Level FlightAware Approximate
12:15AM 59.0257 -30.7157 93° East  Level FlightAware Approximate
12:16AM 59.0170 -30.4606 94° East  Level FlightAware Approximate
12:17AM 59.0078 -30.2057 94° East  Level FlightAware Approximate
12:18AM 58.9971 -29.9511 97° East  Level FlightAware Approximate
12:19AM 58.9818 -29.6975 97° East  Level FlightAware Approximate
12:20AM 58.9660 -29.4441 97° East  Level FlightAware Approximate
12:21AM 58.9496 -29.1910 97° East  Level FlightAware Approximate
12:22AM 58.9328 -28.9381 97° East  Level FlightAware Approximate
12:23AM 58.9155 -28.6854 97° East  Level FlightAware Approximate
12:24AM 58.8977 -28.4330 98° East  Level FlightAware Approximate
12:25AM 58.8794 -28.1808 98° East  Level FlightAware Approximate
12:26AM 58.8606 -27.9290 98° East  Level FlightAware Approximate
12:27AM 58.8414 -27.6774 98° East  Level FlightAware Approximate
12:28AM 58.8216 -27.4261 99° East  Level FlightAware Approximate
12:29AM 58.8014 -27.1751 99° East  Level FlightAware Approximate
12:30AM 58.7806 -26.9243 99° East  Level FlightAware Approximate
12:31AM 58.7594 -26.6739 99° East  Level FlightAware Approximate
12:32AM 58.7377 -26.4238 99° East  Level FlightAware Approximate
12:33AM 58.7155 -26.1740 100° East  Level FlightAware Approximate
12:34AM 58.6928 -25.9245 100° East  Level FlightAware Approximate
12:35AM 58.6697 -25.6753 100° East  Level FlightAware Approximate
12:36AM 58.6461 -25.4265 100° East  Level FlightAware Approximate
12:37AM 58.6219 -25.1780 100° East  Level FlightAware Approximate
12:38AM 58.5974 -24.9299 101° East  Level FlightAware Approximate
12:39AM 58.5723 -24.6821 101° East  Level FlightAware Approximate
12:40AM 58.5467 -24.4347 101° East  Level FlightAware Approximate
12:41AM 58.5207 -24.1877 101° East  Level FlightAware Approximate
12:42AM 58.4942 -23.9410 102° East  Level FlightAware Approximate
12:43AM 58.4673 -23.6947 102° East  Level FlightAware Approximate
12:44AM 58.4398 -23.4487 102° East  Level FlightAware Approximate
12:45AM 58.4119 -23.2032 102° East  Level FlightAware Approximate
12:46AM 58.3835 -22.9580 102° East  Level FlightAware Approximate
12:47AM 58.3547 -22.7133 103° East  Level FlightAware Approximate
12:48AM 58.3254 -22.4689 103° East  Level FlightAware Approximate
12:49AM 58.2956 -22.2250 103° East  Level FlightAware Approximate
12:50AM 58.2654 -21.9814 103° East  Level FlightAware Approximate
12:51AM 58.2347 -21.7383 103° East  Level FlightAware Approximate
12:52AM 58.2035 -21.4956 104° East  Level FlightAware Approximate
12:53AM 58.1719 -21.2534 104° East  Level FlightAware Approximate
12:54AM 58.1398 -21.0115 104° East  Level FlightAware Approximate
12:55AM 58.1073 -20.7701 104° East  Level FlightAware Approximate
12:56AM 58.0743 -20.5292 104° East  Level FlightAware Approximate
12:57AM 58.0408 -20.2887 105° East  Level FlightAware Approximate
12:58AM 58.0069 -20.0487 105° East  Level FlightAware Approximate
12:59AM 57.9754 -19.8077 103° East  Level FlightAware Approximate
01:00AM 57.9442 -19.5668 104° East  Level FlightAware Approximate
01:01AM 57.9125 -19.3263 104° East  Level FlightAware Approximate
01:02AM 57.8804 -19.0862 104° East  Level FlightAware Approximate
01:03AM 57.8478 -18.8466 104° East  Level FlightAware Approximate
01:04AM 57.8147 -18.6074 104° East  Level FlightAware Approximate
01:05AM 57.7812 -18.3687 105° East  Level FlightAware Approximate
01:06AM 57.7473 -18.1304 105° East  Level FlightAware Approximate
01:07AM 57.7129 -17.8925 105° East  Level FlightAware Approximate
01:08AM 57.6781 -17.6551 105° East  Level FlightAware Approximate
01:09AM 57.6428 -17.4182 105° East  Level FlightAware Approximate
01:10AM 57.6071 -17.1817 106° East  Level FlightAware Approximate
01:11AM 57.5709 -16.9457 106° East  Level FlightAware Approximate
01:12AM 57.5343 -16.7102 106° East  Level FlightAware Approximate
01:13AM 57.4973 -16.4752 106° East  Level FlightAware Approximate
01:14AM 57.4598 -16.2406 106° East  Level FlightAware Approximate
01:15AM 57.4219 -16.0065 107° East  Level FlightAware Approximate
01:16AM 57.3836 -15.7729 107° East  Level FlightAware Approximate
01:17AM 57.3448 -15.5398 107° East  Level FlightAware Approximate
01:18AM 57.3056 -15.3071 107° East  Level FlightAware Approximate
01:19AM 57.2660 -15.0750 107° East  Level FlightAware Approximate
01:20AM 57.2259 -14.8434 108° East  Level FlightAware Approximate
01:21AM 57.1855 -14.6123 108° East  Level FlightAware Approximate
01:22AM 57.1446 -14.3816 108° East  Level FlightAware Approximate
01:22AM 56.4320 -12.0090 108° East 510 587 35,000  Level FlightAware
01:22AM 56.3910 -11.8320 113° Southeast 512 589 35,000  Level FlightAware
01:23AM 57.1032 -14.1516 108° East  Level FlightAware Approximate
01:23AM 56.3530 -11.6770 114° Southeast 516 594 35,000  Level FlightAware
01:24AM 56.3090 -11.4970 114° Southeast 518 596 35,000  Level FlightAware
01:25AM 56.2690 -11.3400 115° Southeast 516 594 35,000  Level FlightAware
01:25AM 56.2290 -11.1810 114° Southeast 516 594 35,000  Level FlightAware
01:26AM 56.1840 -11.0070 115° Southeast 516 594 35,000  Level FlightAware
01:27AM 56.1430 -10.8500 115° Southeast 516 594 35,000  Level FlightAware
01:27AM 56.1030 -10.6970 115° Southeast 518 596 35,000  Level FlightAware
01:28AM 56.0560 -10.5240 116° Southeast 517 595 35,000  Level FlightAware
01:29AM 56.0140 -10.3680 116° Southeast 517 595 35,000  Level FlightAware
01:29AM 55.9680 -10.2000 116° Southeast 515 593 35,000  Level FlightAware
01:30AM 55.9270 -10.0480 116° Southeast 513 590 35,000  Level FlightAware
01:31AM 55.8800 -9.8790 116° Southeast 510 587 35,000  Level FlightAware
01:32AM 55.8380 -9.7280 116° Southeast 508 585 35,000  Level FlightAware
01:32AM 55.7960 -9.5810 117° Southeast 506 582 35,000  Level FlightAware
01:33AM 55.7490 -9.4130 116° Southeast 503 579 35,000  Level FlightAware
01:34AM 55.7060 -9.2610 117° Southeast 502 578 35,000  Level FlightAware
01:34AM 55.6580 -9.0950 117° Southeast 502 578 35,000 -1,320 Level FlightAware
01:35AM 55.6147 -8.9970 117° Southeast 450 518 33,500  Descending FlightAware UK
01:35AM 55.6190 -8.9550 117° Southeast 502 578 35,000  Climbing FlightAware
01:35AM 55.5836 -8.8874 117° Southeast 452 520 33,500 -2,700 Descending FlightAware UK
01:36AM 55.5648 -8.8216 117° Southeast 452 520 33,500 3,720 Level FlightAware UK
01:36AM 55.5790 -8.8180 117° Southeast 502 578 35,000  Climbing FlightAware
01:36AM 55.5396 -8.7343 117° Southeast 452 520 33,500 -2,520 Descending FlightAware UK
01:36AM 55.5203 -8.6684 117° Southeast 452 520 33,500 3,300 Level FlightAware UK
01:36AM 55.5270 -8.6380 117° Southeast 503 579 35,000  Climbing FlightAware
01:37AM 55.4948 -8.5816 117° Southeast 454 522 33,500 -2,760 Descending FlightAware UK
01:37AM 55.4757 -8.5165 117° Southeast 456 525 33,500 3,600 Level FlightAware UK
01:37AM 55.4860 -8.4980 117° Southeast 504 580 35,000  Climbing FlightAware
01:37AM 55.4501 -8.4297 117° Southeast 456 525 33,500 -2,580 Descending FlightAware UK
01:38AM 55.4309 -8.3645 117° Southeast 458 527 33,500 3,180 Level FlightAware UK
01:38AM 55.4360 -8.3300 117° Southeast 503 579 35,000  Climbing FlightAware
01:38AM 55.3990 -8.2559 117° Southeast 456 525 33,500  Descending FlightAware UK
01:39AM 55.4080 -8.2360 117° Southeast 504 580 35,000  Climbing FlightAware
01:39AM 55.3604 -8.1259 117° Southeast 456 525 33,500 -2,700 Descending FlightAware UK
01:39AM 55.3410 -8.0609 118° Southeast 456 525 33,500 3,720 Level FlightAware UK
01:39AM 55.3520 -8.0450 118° Southeast 501 577 35,000  Climbing FlightAware
01:40AM 55.3152 -7.9741 118° Southeast 458 527 33,500 -2,520 Descending FlightAware UK
01:40AM 55.2959 -7.9090 117° Southeast 458 527 33,500 3,300 Level FlightAware UK
01:40AM 55.3030 -7.8830 117° Southeast 502 578 35,000  Climbing FlightAware
01:40AM 55.2701 -7.8221 117° Southeast 458 527 33,500 -2,760 Descending FlightAware UK
01:41AM 55.2506 -7.7571 118° Southeast 458 527 33,500 3,600 Level FlightAware UK
01:41AM 55.2600 -7.7370 118° Southeast 502 578 35,000  Climbing FlightAware
01:41AM 55.2246 -7.6705 118° Southeast 458 527 33,500 -2,580 Descending FlightAware UK
01:41AM 55.2049 -7.6057 118° Southeast 458 527 33,500 3,180 Level FlightAware UK
01:41AM 55.2100 -7.5750 118° Southeast 502 578 35,000  Climbing FlightAware
01:42AM 55.1720 -7.4980 118° Southeast 458 527 33,500  Descending FlightAware UK
01:42AM 55.1710 -7.4450 118° Southeast 506 582 35,000  Climbing FlightAware
01:42AM 55.1390 -7.3903 118° Southeast 456 525 33,500 -2,760 Descending FlightAware UK
01:43AM 55.1191 -7.3250 118° Southeast 456 525 33,500 3,000 Level FlightAware UK
01:43AM 55.1210 -7.2840 118° Southeast 506 582 35,000  Climbing FlightAware
01:43AM 55.0861 -7.2173 118° Southeast 456 525 33,500 -2,520 Descending FlightAware UK
01:43AM 55.0662 -7.1529 118° Southeast 456 525 33,500 3,300 Level FlightAware UK
01:43AM 55.0710 -7.1230 118° Southeast 507 583 35,000  Climbing FlightAware
01:44AM 55.0396 -7.0669 118° Southeast 458 527 33,500 -2,760 Descending FlightAware UK
01:44AM 55.0196 -7.0024 118° Southeast 458 527 33,500 3,600 Level FlightAware UK
01:44AM 55.0260 -6.9790 118° Southeast 508 585 35,000  Climbing FlightAware
01:44AM 54.9931 -6.9164 118° Southeast 458 527 33,500 -2,580 Descending FlightAware UK
01:45AM 54.9731 -6.8519 118° Southeast 458 527 33,500 3,900 Level FlightAware UK
01:45AM 54.9820 -6.8350 118° Southeast 507 583 35,000  Climbing FlightAware
01:45AM 54.9463 -6.7661 118° Southeast 462 532 33,500 -2,460 Descending FlightAware UK
01:45AM 54.9262 -6.7019 119° Southeast 466 536 33,500 3,420 Level FlightAware UK
01:46AM 54.9310 -6.6740 119° Southeast 506 582 35,000  Climbing FlightAware
01:46AM 54.8992 -6.6165 119° Southeast 462 532 33,500 -2,700 Descending FlightAware UK
01:46AM 54.8789 -6.5526 119° Southeast 464 534 33,500 3,720 Level FlightAware UK
01:46AM 54.8850 -6.5300 119° Southeast 507 583 35,000  Climbing FlightAware
01:47AM 54.8518 -6.4675 119° Southeast 462 532 33,500 -2,520 Descending FlightAware UK
01:47AM 54.8315 -6.4036 119° Southeast 464 534 33,500 3,300 Level FlightAware UK
01:47AM 54.8350 -6.3740 119° Southeast 503 579 35,000  Climbing FlightAware
01:47AM 54.8042 -6.3189 119° Southeast 460 529 33,500 -2,760 Descending FlightAware UK
01:48AM 54.7839 -6.2555 119° Southeast 460 529 33,500 3,600 Level FlightAware UK
01:48AM 54.7890 -6.2310 119° Southeast 503 579 35,000  Climbing FlightAware
01:48AM 54.7569 -6.1709 119° Southeast 462 532 33,500 -2,580 Descending FlightAware UK
01:48AM 54.7364 -6.1077 119° Southeast 462 532 33,500 3,900 Level FlightAware UK
01:48AM 54.7450 -6.0970 119° Southeast 502 578 35,000  Climbing FlightAware
01:49AM 54.7089 -6.0229 119° Southeast 462 532 33,500 -2,460 Descending FlightAware UK
01:49AM 54.6885 -5.9595 119° Southeast 466 536 33,500 3,420 Level FlightAware UK
01:49AM 54.6910 -5.9310 119° Southeast 506 582 35,000  Climbing FlightAware
01:49AM 54.6607 -5.8754 119° Southeast 464 534 33,500 -2,700 Descending FlightAware UK
01:50AM 54.6396 -5.8124 120° Southeast 460 529 33,500 3,720 Level FlightAware UK
01:50AM 54.6520 -5.8150 120° Southeast 506 582 35,000  Climbing FlightAware
01:50AM 54.6121 -5.7285 120° Southeast 462 532 33,500 -2,520 Descending FlightAware UK
01:50AM 54.5914 -5.6655 120° Southeast 460 529 33,500 3,300 Level FlightAware UK
01:50AM 54.5930 -5.6370 120° Southeast 506 582 35,000  Climbing FlightAware
01:51AM 54.5637 -5.5819 120° Southeast 460 529 33,500 -2,760 Descending FlightAware UK
01:51AM 54.5430 -5.5190 120° Southeast 462 532 33,500 3,600 Level FlightAware UK
01:51AM 54.5470 -5.4990 120° Southeast 505 581 35,000  Climbing FlightAware
01:51AM 54.5155 -5.4352 120° Southeast 462 532 33,500 -2,580 Descending FlightAware UK
01:52AM 54.4947 -5.3726 120° Southeast 460 529 33,500 3,900 Level FlightAware UK
01:52AM 54.5010 -5.3600 120° Southeast 505 581 35,000  Climbing FlightAware
01:52AM 54.4671 -5.2891 120° Southeast 460 529 33,500 -2,460 Descending FlightAware UK
01:52AM 54.4464 -5.2265 120° Southeast 460 529 33,500 3,420 Level FlightAware UK
01:53AM 54.4470 -5.1990 120° Southeast 504 580 35,000  Climbing FlightAware
01:53AM 54.4183 -5.1426 120° Southeast 460 529 33,500 -2,700 Descending FlightAware UK
01:53AM 54.3973 -5.0803 120° Southeast 460 529 33,500 3,720 Level FlightAware UK
01:53AM 54.4010 -5.0640 120° Southeast 504 580 35,000  Climbing FlightAware
01:54AM 54.3694 -4.9976 120° Southeast 462 532 33,500 -2,520 Descending FlightAware UK
01:54AM 54.3483 -4.9358 120° Southeast 462 532 33,500 3,300 Level FlightAware UK
01:54AM 54.3480 -4.9080 120° Southeast 502 578 35,000  Climbing FlightAware
01:54AM 54.3203 -4.8535 120° Southeast 464 534 33,500 -2,760 Descending FlightAware UK
01:55AM 54.2992 -4.7919 120° Southeast 460 529 33,500 3,600 Level FlightAware UK
01:55AM 54.3010 -4.7740 120° Southeast 502 578 35,000  Climbing FlightAware
01:55AM 54.2712 -4.7099 120° Southeast 462 532 33,500 -2,580 Descending FlightAware UK
01:55AM 54.2503 -4.6483 120° Southeast 460 529 33,500 3,900 Level FlightAware UK
01:55AM 54.2540 -4.6350 120° Southeast 501 577 35,000  Climbing FlightAware
01:56AM 54.2219 -4.5660 120° Southeast 460 529 33,500 -2,460 Descending FlightAware UK
01:56AM 54.2009 -4.5057 121° Southeast 460 529 33,500 3,600 Level FlightAware UK
01:56AM 54.2000 -4.4810 121° Southeast 500 575 35,000  Climbing FlightAware
01:56AM 54.1727 -4.4245 121° Southeast 458 527 33,500 -2,580 Descending FlightAware UK
01:57AM 54.1512 -4.3629 121° Southeast 460 529 33,500 3,720 Level FlightAware UK
01:57AM 54.1520 -4.3460 121° Southeast 499 574 35,000  Climbing FlightAware
01:57AM 54.1229 -4.2818 121° Southeast 460 529 33,500 -2,460 Descending FlightAware UK
01:57AM 54.1015 -4.2214 121° Southeast 462 532 33,500 4,260 Level FlightAware UK
01:57AM 54.1050 -4.2130 121° Southeast 498 573 35,000  Climbing FlightAware
01:58AM 54.0803 -4.1610 121° Southeast 458 527 33,500 -2,760 Descending FlightAware UK
01:58AM 54.0590 -4.1007 121° Southeast 456 525 33,500 3,000 Level FlightAware UK
01:58AM 54.0520 -4.0650 121° Southeast 497 572 35,000  Climbing FlightAware
01:58AM 54.0235 -4.0005 121° Southeast 456 525 33,500 -2,520 Descending FlightAware UK
01:59AM 54.0021 -3.9405 121° Southeast 464 534 33,500 4,080 Level FlightAware UK
01:59AM 54.0040 -3.9300 121° Southeast 496 571 35,000  Climbing FlightAware
01:59AM 53.9684 -3.8389 121° Southeast 464 534 33,500  Descending FlightAware UK
02:00AM 53.9550 -3.7730 121° Southeast 498 573 35,000  Climbing FlightAware
02:00AM 53.9212 -3.6436 121° Southeast 462 532 33,500  Descending FlightAware UK
02:00AM 53.9220 -3.6270 121° Southeast 499 574 35,000  Climbing FlightAware
02:01AM 53.8930 -3.5101 121° Southeast 460 529 33,500  Descending FlightAware UK
02:01AM 53.8880 -3.4660 121° Southeast 499 574 35,000  Climbing FlightAware
02:01AM 53.8714 -3.3977 121° Southeast 458 527 33,500 -2,700 Descending FlightAware UK
02:02AM 53.8587 -3.3305 108° East 458 527 33,500 3,720 Level FlightAware UK
02:02AM 53.8600 -3.3170 108° East 499 574 35,000  Climbing FlightAware
02:02AM 53.8422 -3.2409 108° East 458 527 33,500 -2,520 Descending FlightAware UK
02:02AM 53.8299 -3.1738 107° East 458 527 33,500 4,080 Level FlightAware UK
02:02AM 53.8320 -3.1690 107° East 499 574 35,000  Climbing FlightAware
02:03AM 53.8135 -3.0836 107° East 458 527 33,500  Descending FlightAware UK
02:03AM 53.8010 -3.0000 107° East 499 574 35,000  Climbing FlightAware
02:03AM 53.7854 -2.9273 107° East 458 527 33,500  Descending FlightAware UK
02:04AM 53.7730 -2.8480 107° East 498 573 35,000  Climbing FlightAware
02:04AM 53.7531 -2.7473 107° East 460 529 33,500  Descending FlightAware UK
02:04AM 53.7430 -2.6830 107° East 499 574 35,000  Climbing FlightAware
02:05AM 53.7240 -2.5911 107° East 460 529 33,500  Descending FlightAware UK
02:05AM 53.7150 -2.5360 107° East 498 573 35,000  Climbing FlightAware
02:05AM 53.6986 -2.4568 107° East 456 525 33,500 -2,700 Descending FlightAware UK
02:06AM 53.6859 -2.3901 108° East 458 527 33,400 4,080 Descending FlightAware UK
02:06AM 53.6870 -2.3890 108° East 499 574 35,000 3,840 Climbing FlightAware
02:06AM 53.6710 -2.3037 108° East 500 575 35,000 -2,340 Level FlightAware ADS-B
02:06AM 53.6561 -2.2336 108° East 456 525 33,500  Descending FlightAware UK
02:07AM 53.6464 -2.1767 108° East 499 574 35,000  Climbing FlightAware ADS-B
02:07AM 53.6302 -2.1007 108° East 452 520 33,500  Descending FlightAware UK
02:07AM 53.6244 -2.0642 108° East 500 575 35,000  Climbing FlightAware ADS-B
02:08AM 53.6090 -1.9907 108° East 454 522 33,500  Descending FlightAware UK
02:08AM 53.6006 -1.9427 108° East 501 577 35,000  Climbing FlightAware ADS-B
02:08AM 53.5870 -1.8791 108° East 456 525 33,500  Descending FlightAware UK
02:08AM 53.5758 -1.8182 108° East 501 577 35,000  Climbing FlightAware ADS-B
02:09AM 53.5607 -1.7461 108° East 458 527 33,500  Descending FlightAware UK
02:09AM 53.5398 -1.6366 108° East 500 575 35,000  Climbing FlightAware ADS-B
02:10AM 53.5074 -1.4792 108° East 454 522 33,500  Descending FlightAware UK
02:10AM 53.5030 -1.4510 108° East 501 577 35,000 4,680 Climbing FlightAware
02:10AM 53.4963 -1.4176 109° East 500 575 35,000 -3,000 Level FlightAware ADS-B
02:11AM 53.4785 -1.3231 109° East 458 527 33,500  Descending FlightAware UK
02:11AM 53.4760 -1.3040 109° East 503 579 35,000 5,580 Climbing FlightAware
02:11AM 53.4708 -1.2705 105° East 503 579 35,000 -3,480 Level FlightAware ADS-B
02:11AM 53.4561 -1.1866 105° East 454 522 33,500  Descending FlightAware UK
02:11AM 53.4517 -1.1523 105° East 504 580 35,000  Climbing FlightAware ADS-B
02:12AM 53.4381 -1.0732 105° East 454 522 33,500  Descending FlightAware UK
02:12AM 53.4335 -1.0379 105° East 505 581 35,000  Climbing FlightAware ADS-B
02:12AM 53.4169 -0.9370 105° East 456 525 33,500 -2,160 Descending FlightAware UK
02:13AM 53.4065 -0.8687 104° East 454 522 33,500 2,700 Level FlightAware UK
02:13AM 53.4020 -0.8350 104° East 506 582 35,000  Climbing FlightAware
02:13AM 53.3891 -0.7538 104° East 452 520 33,500 -2,760 Descending FlightAware UK
02:13AM 53.3785 -0.6853 105° East 452 520 33,500 3,000 Level FlightAware UK
02:14AM 53.3750 -0.6540 105° East 508 585 35,000  Climbing FlightAware
02:14AM 53.3570 -0.5473 105° East 452 520 33,500  Descending FlightAware UK
02:14AM 53.3510 -0.5040 105° East 509 586 35,000 1,620 Climbing FlightAware
02:15AM 53.3280 -0.3580 105° East 510 587 35,000  Level FlightAware
02:15AM 53.3130 -0.2645 105° East 510 587 35,000  Level FlightAware ADS-B
02:16AM 53.2942 -0.1475 105° East 511 588 35,000  Level FlightAware ADS-B
02:16AM 53.2744 -0.0251 105° East 512 589 35,000  Level FlightAware ADS-B
02:17AM 53.2550 0.0937 105° East 512 589 35,000 -1,560 Level FlightAware ADS-B
02:17AM 53.2346 0.2087 105° East 458 527 33,500  Descending FlightAware UK
02:17AM 53.2323 0.2470 105° East 512 589 35,000  Climbing FlightAware ADS-B
02:18AM 53.2194 0.3752 105° East 462 532 33,500  Descending FlightAware UK
02:18AM 53.2193 0.4097 105° East 518 596 35,000  Climbing FlightAware ADS-B
02:18AM 53.2098 0.4949 105° East 462 532 33,500  Descending FlightAware UK
02:19AM 53.2100 0.5284 105° East 518 596 35,000  Climbing FlightAware ADS-B
02:19AM 53.1914 0.7082 105° East 458 527 33,500 -1,500 Descending FlightAware UK
02:20AM 53.1851 0.7800 98° East 458 527 33,500 3,420 Level FlightAware UK
02:20AM 53.1890 0.7770 98° East 518 596 35,000 6,000 Climbing FlightAware
02:20AM 53.1844 0.8295 98° East 518 596 35,000 -3,120 Level FlightAware ADS-B
02:20AM 53.1730 0.9229 98° East 456 525 33,500  Descending FlightAware UK
02:21AM 53.1730 0.9700 98° East 518 596 35,000 3,060 Climbing FlightAware
02:21AM 53.1681 1.0243 99° East 518 596 35,000 -2,400 Level FlightAware ADS-B
02:21AM 53.1546 1.1360 99° East 454 522 33,500 -2,100 Descending FlightAware UK
02:21AM 53.1463 1.2061 101° East 454 522 33,500 2,760 Level FlightAware UK
02:22AM 53.1445 1.2500 101° East 515 593 35,000 -240 Climbing FlightAware ADS-B
02:22AM 53.1305 1.3224 101° East 454 522 33,400 -2,880 Descending FlightAware UK
02:22AM 53.1212 1.3911 103° East 454 522 33,400 3,420 Level FlightAware UK
02:22AM 53.1218 1.4179 103° East 513 590 35,000  Climbing FlightAware ADS-B
02:23AM 53.1054 1.5064 103° East 454 522 33,400 -1,800 Descending FlightAware UK
02:23AM 53.0891 1.6219 103° East 454 522 33,500 3,060 Climbing FlightAware UK
02:23AM 53.0970 1.6000 103° East 514 592 35,000 9,960 Climbing FlightAware
02:23AM 53.0909 1.6431 103° East 513 590 35,000 -2,580 Level FlightAware ADS-B
02:24AM 53.0690 1.7610 103° East 452 520 33,500  Descending FlightAware UK
02:24AM 53.0720 1.7760 103° East 515 593 35,000  Climbing FlightAware
02:24AM 53.0526 1.8764 103° East 458 527 33,500  Descending FlightAware UK
02:25AM 53.0540 1.9060 103° East 515 593 35,000  Climbing FlightAware
02:25AM 53.0430 1.9467 103° East 456 525 33,500 -4,320 Descending FlightAware UK
02:25AM 53.0332 2.0161 103° East 458 527 33,500  Level FlightAware UK
02:25AM 53.0201 2.1086 103° East 454 522 33,500 3,720 Level FlightAware UK
02:25AM 53.0300 2.0810 103° East 516 594 35,000  Climbing FlightAware
02:26AM 53.0102 2.1779 103° East 454 522 33,500  Descending FlightAware UK
02:26AM 53.0060 2.2540 103° East 517 595 35,000  Climbing FlightAware
02:26AM 52.9872 2.3407 103° East 456 525 33,500 -2,760 Descending FlightAware UK
02:27AM 52.9776 2.4101 103° East 456 525 33,500 3,600 Level FlightAware UK
02:27AM 52.9840 2.4200 103° East 517 595 35,000  Climbing FlightAware
02:27AM 52.9647 2.5036 103° East 456 525 33,500 -2,580 Descending FlightAware UK
02:27AM 52.9552 2.5724 103° East 456 525 33,500 4,080 Level FlightAware UK
02:27AM 52.9630 2.5690 103° East 517 595 35,000 1,800 Climbing FlightAware
02:28AM 52.9390 2.7470 103° East 516 594 35,000  Level FlightAware
02:29AM 52.9180 2.8970 103° East 516 594 35,000  Level FlightAware
02:30AM 52.8940 3.0710 103° East 516 594 35,000 -1,260 Level FlightAware
02:30AM 52.8676 3.1961 103° East 456 525 33,500  Descending FlightAware UK
02:30AM 52.8730 3.2250 103° East 516 594 35,000  Climbing FlightAware
02:31AM 52.8452 3.3574 103° East 460 529 33,500  Descending FlightAware UK
02:31AM 52.8500 3.3950 103° East 516 594 35,000  Climbing FlightAware
02:31AM 52.8231 3.5194 103° East 460 529 33,500  Descending FlightAware UK
02:32AM 52.8300 3.5490 103° East 515 593 35,000 1,680 Climbing FlightAware
02:32AM 52.8100 3.7010 102° East 513 590 35,000  Level FlightAware
02:33AM 52.7860 3.8770 103° East 513 590 35,000 -1,080 Level FlightAware
02:34AM 52.7434 4.0395 103° East 452 520 33,500  Descending FlightAware UK
02:34AM 52.7590 4.0250 103° East 499 574 35,000 2,220 Climbing FlightAware
02:34AM 52.7210 4.1570 115° Southeast 490 564 35,000  Level FlightAware
02:35AM 52.6680 4.3000 121° Southeast 484 557 35,000  Level FlightAware
02:36AM 52.6140 4.4400 122° Southeast 483 556 35,000 -1,440 Level FlightAware
02:36AM 52.5717 4.5165 122° Southeast 454 522 33,500  Descending FlightAware UK
02:37AM 52.5650 4.5650 122° Southeast 482 555 35,000  Climbing FlightAware
02:37AM 52.5216 4.6467 122° Southeast 448 516 33,500  Descending FlightAware UK
02:37AM 52.5120 4.7030 122° Southeast 482 555 35,000  Climbing FlightAware
02:38AM 52.4703 4.7750 122° Southeast 446 513 33,500 -2,460 Descending FlightAware UK
02:38AM 52.4481 4.8299 124° Southeast 446 513 33,500 4,260 Level FlightAware UK
02:38AM 52.4640 4.8270 124° Southeast 483 556 35,000  Climbing FlightAware
02:39AM 52.4039 4.9396 124° Southeast 444 511 33,500  Descending FlightAware UK
02:39AM 52.4190 4.9430 124° Southeast 483 556 35,000 1,680 Climbing FlightAware
02:39AM 52.3610 5.0900 123° Southeast 485 558 35,000  Level FlightAware
02:40AM 52.3150 5.2080 122° Southeast 486 559 35,000 -1,260 Level FlightAware
02:41AM 52.2527 5.3280 122° Southeast 450 518 33,500  Descending FlightAware UK
02:41AM 52.2590 5.3510 122° Southeast 488 562 35,000 1,740 Climbing FlightAware
02:42AM 52.2100 5.4710 124° Southeast 486 559 35,000 -1,380 Level FlightAware
02:42AM 52.1561 5.5656 124° Southeast 448 516 33,500  Descending FlightAware UK
02:42AM 52.1480 5.6060 124° Southeast 481 554 35,000  Climbing FlightAware
02:43AM 52.0739 5.7117 124° Southeast 452 520 33,500  Descending FlightAware UK
02:43AM 52.0960 5.7090 124° Southeast 481 554 35,000  Climbing FlightAware
02:43AM 52.0392 5.7771 124° Southeast 452 520 33,500 -2,400 Descending FlightAware UK
02:44AM 52.0139 5.8267 130° Southeast 452 520 33,500 4,500 Level FlightAware UK
02:44AM 52.0340 5.8270 130° Southeast 480 552 35,000 1,860 Climbing FlightAware
02:44AM 51.9690 5.9500 131° Southeast 481 554 35,000  Level FlightAware
02:45AM 51.9150 6.0520 131° Southeast 481 554 35,000  Level FlightAware
02:46AM 51.8610 6.1530 131° Southeast 482 555 35,000  Level FlightAware
02:46AM 51.7910 6.2840 131° Southeast 482 555 35,000  Level FlightAware
02:47AM 51.7320 6.3930 131° Southeast 481 554 35,000  Level FlightAware
02:48AM 51.6750 6.4990 131° Southeast 481 554 35,000  Level FlightAware
02:49AM 51.6070 6.6220 132° Southeast 480 552 35,000  Level FlightAware
02:49AM 51.5460 6.7330 131° Southeast 479 551 35,000  Level FlightAware
02:50AM 51.4820 6.8490 132° Southeast 477 549 35,000  Level FlightAware
02:51AM 51.4370 6.9320 131° Southeast 476 548 35,000  Level FlightAware
02:51AM 51.3570 7.0760 132° Southeast 475 547 35,000  Level FlightAware
02:52AM 51.2990 7.1800 132° Southeast 475 547 35,000  Level FlightAware
02:53AM 51.2460 7.2730 132° Southeast 475 547 35,000  Level FlightAware
02:55AM 51.0837 7.5490 133° Southeast  Level Estimated
02:56AM 50.9932 7.7015 133° Southeast  Level Estimated
02:56AM 50.9960 7.7150 133° Southeast 475 547 35,000  Level FlightAware
02:56AM 50.9300 7.8310 132° Southeast 472 543 35,000  Level FlightAware
02:57AM 50.8690 7.9350 133° Southeast 471 542 35,000  Level FlightAware
02:58AM 50.8070 8.0360 134° Southeast 466 536 35,000  Level FlightAware
02:58AM 50.7390 8.1270 140° Southeast 456 525 35,000  Level FlightAware
02:59AM 50.6670 8.2160 142° Southeast 451 519 35,000  Level FlightAware
03:00AM 50.6030 8.2920 143° Southeast 450 518 35,000 -480 Level FlightAware
03:00AM 50.5250 8.3850 143° Southeast 457 526 34,400 -960 Descending FlightAware
03:01AM 50.4570 8.4660 143° Southeast 454 522 33,700 -1,020 Descending FlightAware
03:02AM 50.3880 8.5570 140° Southeast 457 526 33,000 -540 Descending FlightAware
03:03AM 50.3290 8.6390 138° Southeast 460 529 33,000  Level FlightAware
03:03AM 50.2600 8.7370 138° Southeast 461 531 33,000  Level FlightAware
03:04AM 50.1890 8.8380 138° Southeast 463 533 33,000  Level FlightAware
03:05AM 50.1240 8.9300 138° Southeast 465 535 33,000  Level FlightAware
03:05AM 50.0540 9.0270 138° Southeast 467 537 33,000  Level FlightAware
03:06AM 49.9900 9.1160 138° Southeast 468 539 33,000  Level FlightAware
03:07AM 49.9150 9.2200 138° Southeast 466 536 33,000  Level FlightAware
03:07AM 49.8510 9.3070 139° Southeast 465 535 33,000  Level FlightAware
03:08AM 49.7870 9.3950 138° Southeast 464 534 33,000  Level FlightAware
03:09AM 49.7190 9.4870 139° Southeast 463 533 33,000 -360 Level FlightAware
03:10AM 49.6090 9.6360 139° Southeast 456 525 32,400 -1,320 Descending FlightAware
03:11AM 49.5580 9.7040 139° Southeast 453 521 30,800 -2,820 Descending FlightAware
03:11AM 49.4940 9.7890 139° Southeast 450 518 28,900 -2,640 Descending FlightAware
03:12AM 49.4210 9.8880 139° Southeast 437 503 26,900 -2,400 Descending FlightAware
03:13AM 49.3610 9.9680 139° Southeast 429 494 25,300 -1,380 Descending FlightAware
03:13AM 49.2890 10.0620 140° Southeast 422 486 25,000 -240 Descending FlightAware
03:14AM 49.2310 10.1400 139° Southeast 427 491 25,000 -480 Level FlightAware
03:15AM 49.1490 10.2490 139° Southeast 25,000 -540 Level FlightAware
03:16AM 49.0410 10.4190 128° Southeast 25,000 -720 Level FlightAware
03:17AM 49.0261 10.4973 128° Southeast  Level FlightAware Approximate
03:17AM 48.9740 10.5260 134° Southeast 435 501 23,400  Level FlightAware
03:18AM 48.8950 10.6510 134° Southeast 416 479 21,000 -1,560 Descending FlightAware
03:19AM 48.8510 10.7200 134° Southeast 416 479 21,000  Level FlightAware
03:19AM 48.8050 10.7920 134° Southeast 416 479 21,000 -3,480 Level FlightAware
03:20AM 48.7380 10.8940 135° Southeast 394 453 15,800 -4,740 Descending FlightAware
03:21AM 48.6340 11.0230 141° Southeast 360 414 11,600 -3,000 Descending FlightAware
03:22AM 48.5810 11.0770 146° Southeast 340 391 10,400 -1,500 Descending FlightAware
03:23AM 48.5500 11.1100 145° Southeast 310 357 10,000 -1,080 Descending FlightAware
03:23AM 48.5350 11.1260 145° Southeast 294 338 9,700 -1,500 Descending FlightAware
03:23AM 48.5070 11.1570 144° Southeast 277 319 9,000 -1,740 Descending FlightAware
03:24AM 48.4710 11.1950 145° Southeast 274 315 8,000 -1,500 Descending FlightAware
03:24AM 48.4390 11.2290 145° Southeast 268 308 7,400 -1,560 Descending FlightAware
03:25AM 48.4180 11.2520 144° Southeast 266 306 6,700 -1,320 Descending FlightAware
03:25AM 48.3770 11.3180 133° Southeast 249 287 5,900 -840 Descending FlightAware
03:26AM 48.3730 11.3240 135° Southeast 237 273 5,900 120 Level FlightAware
03:26AM 48.3550 11.3620 125° Southeast 230 265 6,000  Climbing FlightAware
03:26AM 48.3480 11.3950 108° East 236 272 5,900 -480 Descending FlightAware
03:26AM 48.3470 11.4020 102° East 235 270 5,800 -900 Descending FlightAware
03:27AM 48.3450 11.4590 93° East 236 272 5,300 -840 Descending FlightAware
03:28AM 48.3460 11.5030 88° East 239 275 4,900 -1,020 Descending FlightAware
03:28AM 48.3480 11.5370 85° East 233 268 4,400 -1,440 Descending FlightAware
03:28AM 48.3530 11.5970 83° East 181 208 3,600 -1,200 Descending FlightAware
03:29AM 48.3560 11.6440 84° East 155 178 3,000 -900 Descending FlightAware
03:29AM 48.3570 11.6600 85° East 138 159 2,800 -780 Descending FlightAware
03:30AM 48.3600 11.6980 83° East 132 152 2,300 -780 Descending FlightAware
03:30AM 48.3610 11.7110 83° East 132 152 2,100 -840 Descending FlightAware
03:31AM 48.3640 11.7390 81° East 131 151 1,700 -840 Descending FlightAware